sensor_id;sensor_type;location;lat;lon;timestamp;P1;durP1;ratioP1;P2;durP2;ratioP2
22284;SDS011;11311;52.192;20.900;2022-10-03T00:01:20;14.80;;;5.75;;
22284;SDS011;11311;52.192;20.900;2022-10-03T00:04:04;13.23;;;5.68;;
22284;SDS011;11311;52.192;20.900;2022-10-03T00:06:40;10.80;;;5.57;;
22284;SDS011;11311;52.192;20.900;2022-10-03T00:09:25;18.40;;;6.55;;
22284;SDS011;11311;52.192;20.900;2022-10-03T00:12:07;11.15;;;6.18;;
22284;SDS011;11311;52.192;20.900;2022-10-03T00:14:40;10.95;;;5.95;;
22284;SDS011;11311;52.192;20.900;2022-10-03T00:17:16;12.07;;;5.43;;
22284;SDS011;11311;52.192;20.900;2022-10-03T00:19:50;11.55;;;6.32;;
22284;SDS011;11311;52.192;20.900;2022-10-03T00:22:25;15.50;;;6.45;;
22284;SDS011;11311;52.192;20.900;2022-10-03T00:25:05;14.90;;;6.50;;
22284;SDS011;11311;52.192;20.900;2022-10-03T00:27:44;12.88;;;6.47;;
22284;SDS011;11311;52.192;20.900;2022-10-03T00:30:17;11.73;;;6.85;;
22284;SDS011;11311;52.192;20.900;2022-10-03T00:32:55;11.73;;;6.78;;
22284;SDS011;11311;52.192;20.900;2022-10-03T00:35:39;13.10;;;7.22;;
22284;SDS011;11311;52.192;20.900;2022-10-03T00:38:23;7.97;;;6.53;;
22284;SDS011;11311;52.192;20.900;2022-10-03T00:41:33;9.65;;;6.38;;
22284;SDS011;11311;52.192;20.900;2022-10-03T00:47:22;11.95;;;7.28;;
22284;SDS011;11311;52.192;20.900;2022-10-03T00:50:05;17.10;;;6.88;;
22284;SDS011;11311;52.192;20.900;2022-10-03T00:53:04;10.57;;;6.07;;
22284;SDS011;11311;52.192;20.900;2022-10-03T00:55:44;11.35;;;5.93;;
22284;SDS011;11311;52.192;20.900;2022-10-03T00:58:30;18.35;;;6.15;;
22284;SDS011;11311;52.192;20.900;2022-10-03T01:01:28;15.40;;;5.95;;
22284;SDS011;11311;52.192;20.900;2022-10-03T01:04:08;9.45;;;5.82;;
22284;SDS011;11311;52.192;20.900;2022-10-03T01:06:48;17.45;;;6.15;;
22284;SDS011;11311;52.192;20.900;2022-10-03T01:09:30;12.98;;;5.28;;
22284;SDS011;11311;52.192;20.900;2022-10-03T01:12:07;16.52;;;5.60;;
22284;SDS011;11311;52.192;20.900;2022-10-03T01:14:50;9.45;;;5.75;;
22284;SDS011;11311;52.192;20.900;2022-10-03T01:17:29;11.63;;;5.70;;
22284;SDS011;11311;52.192;20.900;2022-10-03T01:20:05;9.02;;;5.15;;
22284;SDS011;11311;52.192;20.900;2022-10-03T01:22:45;16.38;;;6.43;;
22284;SDS011;11311;52.192;20.900;2022-10-03T01:25:37;9.77;;;5.25;;
22284;SDS011;11311;52.192;20.900;2022-10-03T01:31:29;12.50;;;5.88;;
22284;SDS011;11311;52.192;20.900;2022-10-03T01:34:04;14.85;;;5.20;;
22284;SDS011;11311;52.192;20.900;2022-10-03T01:36:38;8.65;;;6.18;;
22284;SDS011;11311;52.192;20.900;2022-10-03T01:39:12;8.77;;;6.03;;
22284;SDS011;11311;52.192;20.900;2022-10-03T01:41:46;10.90;;;5.57;;
22284;SDS011;11311;52.192;20.900;2022-10-03T01:44:21;11.80;;;5.15;;
22284;SDS011;11311;52.192;20.900;2022-10-03T01:46:53;17.45;;;6.00;;
22284;SDS011;11311;52.192;20.900;2022-10-03T01:49:26;13.57;;;5.82;;
22284;SDS011;11311;52.192;20.900;2022-10-03T01:52:02;14.90;;;6.10;;
22284;SDS011;11311;52.192;20.900;2022-10-03T01:54:34;10.70;;;6.03;;
22284;SDS011;11311;52.192;20.900;2022-10-03T01:57:09;17.42;;;6.20;;
22284;SDS011;11311;52.192;20.900;2022-10-03T01:59:45;8.63;;;5.05;;
22284;SDS011;11311;52.192;20.900;2022-10-03T02:02:20;12.98;;;5.90;;
22284;SDS011;11311;52.192;20.900;2022-10-03T02:04:58;14.63;;;5.70;;
22284;SDS011;11311;52.192;20.900;2022-10-03T02:07:34;12.73;;;6.28;;
22284;SDS011;11311;52.192;20.900;2022-10-03T02:10:11;11.32;;;6.70;;
22284;SDS011;11311;52.192;20.900;2022-10-03T02:12:49;9.35;;;6.18;;
22284;SDS011;11311;52.192;20.900;2022-10-03T02:15:26;9.73;;;6.25;;
22284;SDS011;11311;52.192;20.900;2022-10-03T02:17:56;14.55;;;6.13;;
22284;SDS011;11311;52.192;20.900;2022-10-03T02:20:31;11.65;;;6.35;;
22284;SDS011;11311;52.192;20.900;2022-10-03T02:23:03;11.75;;;6.13;;
22284;SDS011;11311;52.192;20.900;2022-10-03T02:25:53;12.80;;;5.75;;
22284;SDS011;11311;52.192;20.900;2022-10-03T02:28:32;17.85;;;5.95;;
22284;SDS011;11311;52.192;20.900;2022-10-03T02:31:17;10.40;;;6.13;;
22284;SDS011;11311;52.192;20.900;2022-10-03T02:34:03;13.68;;;6.80;;
22284;SDS011;11311;52.192;20.900;2022-10-03T02:36:57;12.80;;;5.22;;
22284;SDS011;11311;52.192;20.900;2022-10-03T02:40:08;8.75;;;5.20;;
22284;SDS011;11311;52.192;20.900;2022-10-03T02:49:14;7.97;;;5.15;;
22284;SDS011;11311;52.192;20.900;2022-10-03T02:55:18;8.43;;;5.43;;
22284;SDS011;11311;52.192;20.900;2022-10-03T02:58:05;9.45;;;4.93;;
22284;SDS011;11311;52.192;20.900;2022-10-03T03:04:28;13.35;;;5.22;;
22284;SDS011;11311;52.192;20.900;2022-10-03T03:07:21;11.57;;;5.35;;
22284;SDS011;11311;52.192;20.900;2022-10-03T03:13:05;7.57;;;5.05;;
22284;SDS011;11311;52.192;20.900;2022-10-03T03:19:11;14.18;;;4.88;;
22284;SDS011;11311;52.192;20.900;2022-10-03T03:21:50;9.57;;;5.60;;
22284;SDS011;11311;52.192;20.900;2022-10-03T03:24:24;7.80;;;5.72;;
22284;SDS011;11311;52.192;20.900;2022-10-03T03:27:07;7.85;;;5.30;;
22284;SDS011;11311;52.192;20.900;2022-10-03T03:29:46;12.77;;;5.78;;
22284;SDS011;11311;52.192;20.900;2022-10-03T03:32:21;13.48;;;5.75;;
22284;SDS011;11311;52.192;20.900;2022-10-03T03:34:58;10.70;;;6.15;;
22284;SDS011;11311;52.192;20.900;2022-10-03T03:37:38;13.00;;;5.82;;
22284;SDS011;11311;52.192;20.900;2022-10-03T03:40:15;9.52;;;6.28;;
22284;SDS011;11311;52.192;20.900;2022-10-03T03:43:05;9.93;;;6.82;;
22284;SDS011;11311;52.192;20.900;2022-10-03T03:45:43;17.10;;;5.78;;
22284;SDS011;11311;52.192;20.900;2022-10-03T03:48:28;8.85;;;6.32;;
22284;SDS011;11311;52.192;20.900;2022-10-03T03:51:08;12.50;;;6.22;;
22284;SDS011;11311;52.192;20.900;2022-10-03T03:53:52;13.88;;;6.90;;
22284;SDS011;11311;52.192;20.900;2022-10-03T03:56:41;11.73;;;6.15;;
22284;SDS011;11311;52.192;20.900;2022-10-03T03:59:20;13.70;;;7.15;;
22284;SDS011;11311;52.192;20.900;2022-10-03T04:01:59;14.23;;;6.30;;
22284;SDS011;11311;52.192;20.900;2022-10-03T04:04:44;9.33;;;5.93;;
22284;SDS011;11311;52.192;20.900;2022-10-03T04:07:23;9.77;;;6.40;;
22284;SDS011;11311;52.192;20.900;2022-10-03T04:12:51;14.68;;;6.35;;
22284;SDS011;11311;52.192;20.900;2022-10-03T04:15:30;13.48;;;7.85;;
22284;SDS011;11311;52.192;20.900;2022-10-03T04:18:10;12.98;;;6.80;;
22284;SDS011;11311;52.192;20.900;2022-10-03T04:21:18;15.82;;;6.63;;
22284;SDS011;11311;52.192;20.900;2022-10-03T04:24:01;17.00;;;7.38;;
22284;SDS011;11311;52.192;20.900;2022-10-03T04:26:54;14.70;;;6.70;;
22284;SDS011;11311;52.192;20.900;2022-10-03T04:29:45;13.35;;;7.20;;
22284;SDS011;11311;52.192;20.900;2022-10-03T04:32:24;9.48;;;7.28;;
22284;SDS011;11311;52.192;20.900;2022-10-03T04:35:19;8.85;;;5.93;;
22284;SDS011;11311;52.192;20.900;2022-10-03T04:37:59;12.80;;;7.40;;
22284;SDS011;11311;52.192;20.900;2022-10-03T04:40:40;13.98;;;7.40;;
22284;SDS011;11311;52.192;20.900;2022-10-03T04:43:17;16.08;;;7.22;;
22284;SDS011;11311;52.192;20.900;2022-10-03T04:45:53;12.18;;;6.55;;
22284;SDS011;11311;52.192;20.900;2022-10-03T04:48:31;13.73;;;7.53;;
22284;SDS011;11311;52.192;20.900;2022-10-03T04:51:06;13.18;;;6.78;;
22284;SDS011;11311;52.192;20.900;2022-10-03T04:53:40;14.52;;;7.45;;
22284;SDS011;11311;52.192;20.900;2022-10-03T04:56:30;14.43;;;7.53;;
22284;SDS011;11311;52.192;20.900;2022-10-03T04:59:09;15.30;;;8.75;;
22284;SDS011;11311;52.192;20.900;2022-10-03T05:01:51;15.20;;;7.97;;
22284;SDS011;11311;52.192;20.900;2022-10-03T05:04:24;10.80;;;7.38;;
22284;SDS011;11311;52.192;20.900;2022-10-03T05:06:59;15.18;;;8.57;;
22284;SDS011;11311;52.192;20.900;2022-10-03T05:09:36;14.73;;;9.43;;
22284;SDS011;11311;52.192;20.900;2022-10-03T05:12:11;13.25;;;8.88;;
22284;SDS011;11311;52.192;20.900;2022-10-03T05:14:48;17.73;;;10.20;;
22284;SDS011;11311;52.192;20.900;2022-10-03T05:17:27;15.63;;;9.98;;
22284;SDS011;11311;52.192;20.900;2022-10-03T05:20:03;18.58;;;10.23;;
22284;SDS011;11311;52.192;20.900;2022-10-03T05:22:54;11.55;;;9.50;;
22284;SDS011;11311;52.192;20.900;2022-10-03T05:25:30;14.27;;;8.90;;
22284;SDS011;11311;52.192;20.900;2022-10-03T05:28:10;13.35;;;8.48;;
22284;SDS011;11311;52.192;20.900;2022-10-03T05:30:47;18.83;;;9.93;;
22284;SDS011;11311;52.192;20.900;2022-10-03T05:33:22;12.35;;;9.82;;
22284;SDS011;11311;52.192;20.900;2022-10-03T05:36:02;14.68;;;9.88;;
22284;SDS011;11311;52.192;20.900;2022-10-03T05:41:42;18.13;;;10.68;;
22284;SDS011;11311;52.192;20.900;2022-10-03T05:44:40;13.70;;;10.18;;
22284;SDS011;11311;52.192;20.900;2022-10-03T05:47:12;20.58;;;11.35;;
22284;SDS011;11311;52.192;20.900;2022-10-03T05:50:12;13.15;;;10.10;;
22284;SDS011;11311;52.192;20.900;2022-10-03T05:53:15;15.80;;;9.35;;
22284;SDS011;11311;52.192;20.900;2022-10-03T05:55:52;12.85;;;9.43;;
22284;SDS011;11311;52.192;20.900;2022-10-03T05:58:35;18.45;;;9.18;;
22284;SDS011;11311;52.192;20.900;2022-10-03T06:01:27;11.05;;;8.60;;
22284;SDS011;11311;52.192;20.900;2022-10-03T06:04:14;13.52;;;7.30;;
22284;SDS011;11311;52.192;20.900;2022-10-03T06:07:01;12.40;;;7.75;;
22284;SDS011;11311;52.192;20.900;2022-10-03T06:12:42;11.50;;;7.47;;
22284;SDS011;11311;52.192;20.900;2022-10-03T06:15:19;11.63;;;6.60;;
22284;SDS011;11311;52.192;20.900;2022-10-03T06:17:59;9.43;;;6.28;;
22284;SDS011;11311;52.192;20.900;2022-10-03T06:20:53;12.02;;;6.00;;
22284;SDS011;11311;52.192;20.900;2022-10-03T06:30:10;12.30;;;5.88;;
22284;SDS011;11311;52.192;20.900;2022-10-03T06:33:00;10.02;;;5.03;;
22284;SDS011;11311;52.192;20.900;2022-10-03T06:42:13;11.98;;;6.05;;
22284;SDS011;11311;52.192;20.900;2022-10-03T06:44:59;16.77;;;6.75;;
22284;SDS011;11311;52.192;20.900;2022-10-03T06:48:00;10.77;;;7.22;;
22284;SDS011;11311;52.192;20.900;2022-10-03T06:50:51;12.98;;;7.20;;
22284;SDS011;11311;52.192;20.900;2022-10-03T06:56:28;11.48;;;6.72;;
22284;SDS011;11311;52.192;20.900;2022-10-03T06:59:30;12.35;;;5.57;;
22284;SDS011;11311;52.192;20.900;2022-10-03T07:02:19;8.95;;;5.00;;
22284;SDS011;11311;52.192;20.900;2022-10-03T07:08:32;8.57;;;6.47;;
22284;SDS011;11311;52.192;20.900;2022-10-03T07:18:13;7.60;;;4.55;;
22284;SDS011;11311;52.192;20.900;2022-10-03T07:21:03;12.23;;;4.50;;
22284;SDS011;11311;52.192;20.900;2022-10-03T07:24:03;10.07;;;3.80;;
22284;SDS011;11311;52.192;20.900;2022-10-03T07:26:49;5.97;;;3.83;;
22284;SDS011;11311;52.192;20.900;2022-10-03T07:29:47;9.75;;;3.65;;
22284;SDS011;11311;52.192;20.900;2022-10-03T07:32:33;7.03;;;4.32;;
22284;SDS011;11311;52.192;20.900;2022-10-03T07:41:30;8.07;;;3.10;;
22284;SDS011;11311;52.192;20.900;2022-10-03T07:44:36;6.78;;;3.28;;
22284;SDS011;11311;52.192;20.900;2022-10-03T07:47:30;3.50;;;2.90;;
22284;SDS011;11311;52.192;20.900;2022-10-03T07:50:34;4.25;;;2.47;;
22284;SDS011;11311;52.192;20.900;2022-10-03T07:56:43;6.45;;;3.83;;
22284;SDS011;11311;52.192;20.900;2022-10-03T07:59:31;5.30;;;2.40;;
22284;SDS011;11311;52.192;20.900;2022-10-03T08:02:26;7.82;;;2.85;;
22284;SDS011;11311;52.192;20.900;2022-10-03T08:05:25;3.65;;;2.72;;
22284;SDS011;11311;52.192;20.900;2022-10-03T08:08:20;4.60;;;2.80;;
22284;SDS011;11311;52.192;20.900;2022-10-03T08:11:23;5.85;;;2.78;;
22284;SDS011;11311;52.192;20.900;2022-10-03T08:14:16;4.93;;;3.17;;
22284;SDS011;11311;52.192;20.900;2022-10-03T08:19:58;4.75;;;2.63;;
22284;SDS011;11311;52.192;20.900;2022-10-03T08:22:41;3.88;;;2.45;;
22284;SDS011;11311;52.192;20.900;2022-10-03T08:25:22;4.18;;;2.88;;
22284;SDS011;11311;52.192;20.900;2022-10-03T08:27:59;7.78;;;3.30;;
22284;SDS011;11311;52.192;20.900;2022-10-03T08:30:40;3.53;;;3.20;;
22284;SDS011;11311;52.192;20.900;2022-10-03T08:33:32;7.72;;;2.97;;
22284;SDS011;11311;52.192;20.900;2022-10-03T08:36:26;4.68;;;2.50;;
22284;SDS011;11311;52.192;20.900;2022-10-03T08:39:21;5.15;;;3.20;;
22284;SDS011;11311;52.192;20.900;2022-10-03T08:45:32;4.15;;;2.83;;
22284;SDS011;11311;52.192;20.900;2022-10-03T08:51:48;7.40;;;2.90;;
22284;SDS011;11311;52.192;20.900;2022-10-03T08:57:35;6.38;;;3.17;;
22284;SDS011;11311;52.192;20.900;2022-10-03T09:00:22;4.63;;;3.80;;
22284;SDS011;11311;52.192;20.900;2022-10-03T09:12:51;7.43;;;4.07;;
22284;SDS011;11311;52.192;20.900;2022-10-03T09:15:48;4.38;;;3.60;;
22284;SDS011;11311;52.192;20.900;2022-10-03T09:18:41;6.33;;;4.20;;
22284;SDS011;11311;52.192;20.900;2022-10-03T09:21:28;5.07;;;3.53;;
22284;SDS011;11311;52.192;20.900;2022-10-03T09:24:25;5.25;;;3.60;;
22284;SDS011;11311;52.192;20.900;2022-10-03T09:29:46;10.88;;;4.15;;
22284;SDS011;11311;52.192;20.900;2022-10-03T09:32:44;5.40;;;3.83;;
22284;SDS011;11311;52.192;20.900;2022-10-03T09:41:37;10.27;;;5.03;;
22284;SDS011;11311;52.192;20.900;2022-10-03T09:57:08;5.32;;;4.38;;
22284;SDS011;11311;52.192;20.900;2022-10-03T09:59:56;7.13;;;4.97;;
22284;SDS011;11311;52.192;20.900;2022-10-03T10:09:03;5.10;;;4.18;;
22284;SDS011;11311;52.192;20.900;2022-10-03T10:24:05;5.15;;;4.70;;
22284;SDS011;11311;52.192;20.900;2022-10-03T10:33:19;5.93;;;4.32;;
22284;SDS011;11311;52.192;20.900;2022-10-03T10:39:59;4.57;;;4.07;;
22284;SDS011;11311;52.192;20.900;2022-10-03T10:56:32;6.80;;;2.88;;
22284;SDS011;11311;52.192;20.900;2022-10-03T11:02:39;2.83;;;2.10;;
22284;SDS011;11311;52.192;20.900;2022-10-03T11:05:49;3.25;;;2.10;;
22284;SDS011;11311;52.192;20.900;2022-10-03T11:08:54;2.50;;;1.55;;
22284;SDS011;11311;52.192;20.900;2022-10-03T11:24:11;2.25;;;0.80;;
22284;SDS011;11311;52.192;20.900;2022-10-03T11:27:10;2.58;;;1.08;;
22284;SDS011;11311;52.192;20.900;2022-10-03T11:30:21;1.35;;;1.10;;
22284;SDS011;11311;52.192;20.900;2022-10-03T11:36:26;2.25;;;1.48;;
22284;SDS011;11311;52.192;20.900;2022-10-03T11:39:22;3.05;;;1.17;;
22284;SDS011;11311;52.192;20.900;2022-10-03T11:42:00;4.03;;;1.23;;
22284;SDS011;11311;52.192;20.900;2022-10-03T11:44:33;2.55;;;1.30;;
22284;SDS011;11311;52.192;20.900;2022-10-03T11:47:15;4.80;;;1.35;;
22284;SDS011;11311;52.192;20.900;2022-10-03T11:50:08;1.50;;;1.40;;
22284;SDS011;11311;52.192;20.900;2022-10-03T11:52:54;5.93;;;1.27;;
22284;SDS011;11311;52.192;20.900;2022-10-03T11:55:38;4.78;;;1.52;;
22284;SDS011;11311;52.192;20.900;2022-10-03T11:58:19;1.42;;;1.13;;
22284;SDS011;11311;52.192;20.900;2022-10-03T12:01:04;2.97;;;1.30;;
22284;SDS011;11311;52.192;20.900;2022-10-03T12:03:46;2.67;;;1.13;;
22284;SDS011;11311;52.192;20.900;2022-10-03T12:06:24;6.65;;;1.38;;
22284;SDS011;11311;52.192;20.900;2022-10-03T12:09:24;5.15;;;1.42;;
22284;SDS011;11311;52.192;20.900;2022-10-03T12:12:02;1.10;;;0.95;;
22284;SDS011;11311;52.192;20.900;2022-10-03T12:14:37;2.08;;;1.40;;
22284;SDS011;11311;52.192;20.900;2022-10-03T12:17:11;3.55;;;1.20;;
22284;SDS011;11311;52.192;20.900;2022-10-03T12:19:44;1.90;;;1.20;;
22284;SDS011;11311;52.192;20.900;2022-10-03T12:22:25;3.20;;;1.42;;
22284;SDS011;11311;52.192;20.900;2022-10-03T12:25:01;3.72;;;1.38;;
22284;SDS011;11311;52.192;20.900;2022-10-03T12:27:39;1.88;;;1.42;;
22284;SDS011;11311;52.192;20.900;2022-10-03T12:30:16;1.48;;;1.38;;
22284;SDS011;11311;52.192;20.900;2022-10-03T12:32:51;5.15;;;1.33;;
22284;SDS011;11311;52.192;20.900;2022-10-03T12:35:30;4.10;;;1.27;;
22284;SDS011;11311;52.192;20.900;2022-10-03T12:38:08;8.80;;;1.25;;
22284;SDS011;11311;52.192;20.900;2022-10-03T12:40:45;21.67;;;2.03;;
22284;SDS011;11311;52.192;20.900;2022-10-03T12:43:26;1.85;;;0.85;;
22284;SDS011;11311;52.192;20.900;2022-10-03T12:46:02;4.00;;;1.02;;
22284;SDS011;11311;52.192;20.900;2022-10-03T12:48:39;3.28;;;1.20;;
22284;SDS011;11311;52.192;20.900;2022-10-03T12:51:28;10.88;;;1.17;;
22284;SDS011;11311;52.192;20.900;2022-10-03T12:54:06;4.28;;;1.80;;
22284;SDS011;11311;52.192;20.900;2022-10-03T12:56:42;2.90;;;1.45;;
22284;SDS011;11311;52.192;20.900;2022-10-03T12:59:18;4.55;;;1.30;;
22284;SDS011;11311;52.192;20.900;2022-10-03T13:02:01;2.90;;;1.35;;
22284;SDS011;11311;52.192;20.900;2022-10-03T13:04:51;2.65;;;1.02;;
22284;SDS011;11311;52.192;20.900;2022-10-03T13:07:29;5.78;;;1.52;;
22284;SDS011;11311;52.192;20.900;2022-10-03T13:10:03;1.98;;;1.00;;
22284;SDS011;11311;52.192;20.900;2022-10-03T13:12:39;1.38;;;0.88;;
22284;SDS011;11311;52.192;20.900;2022-10-03T13:18:20;4.85;;;1.20;;
22284;SDS011;11311;52.192;20.900;2022-10-03T13:21:08;2.85;;;1.08;;
22284;SDS011;11311;52.192;20.900;2022-10-03T13:24:00;5.15;;;1.52;;
22284;SDS011;11311;52.192;20.900;2022-10-03T13:26:39;2.05;;;1.45;;
22284;SDS011;11311;52.192;20.900;2022-10-03T13:29:21;2.97;;;1.60;;
22284;SDS011;11311;52.192;20.900;2022-10-03T13:32:03;2.28;;;1.50;;
22284;SDS011;11311;52.192;20.900;2022-10-03T13:34:40;4.97;;;1.67;;
22284;SDS011;11311;52.192;20.900;2022-10-03T13:37:17;7.40;;;1.33;;
22284;SDS011;11311;52.192;20.900;2022-10-03T13:39:54;2.28;;;1.23;;
22284;SDS011;11311;52.192;20.900;2022-10-03T13:42:31;9.25;;;1.75;;
22284;SDS011;11311;52.192;20.900;2022-10-03T13:45:10;5.95;;;2.22;;
22284;SDS011;11311;52.192;20.900;2022-10-03T13:47:42;2.17;;;1.48;;
22284;SDS011;11311;52.192;20.900;2022-10-03T13:50:15;3.63;;;1.15;;
22284;SDS011;11311;52.192;20.900;2022-10-03T13:52:47;6.70;;;1.42;;
22284;SDS011;11311;52.192;20.900;2022-10-03T13:55:22;10.07;;;1.38;;
22284;SDS011;11311;52.192;20.900;2022-10-03T13:57:59;4.20;;;1.10;;
22284;SDS011;11311;52.192;20.900;2022-10-03T14:00:41;4.03;;;1.38;;
22284;SDS011;11311;52.192;20.900;2022-10-03T14:03:30;3.83;;;1.45;;
22284;SDS011;11311;52.192;20.900;2022-10-03T14:06:13;3.97;;;1.70;;
22284;SDS011;11311;52.192;20.900;2022-10-03T14:08:53;1.55;;;1.20;;
22284;SDS011;11311;52.192;20.900;2022-10-03T14:11:31;3.28;;;1.52;;
22284;SDS011;11311;52.192;20.900;2022-10-03T14:14:14;1.60;;;1.35;;
22284;SDS011;11311;52.192;20.900;2022-10-03T14:17:03;3.72;;;1.63;;
22284;SDS011;11311;52.192;20.900;2022-10-03T14:19:38;5.85;;;1.38;;
22284;SDS011;11311;52.192;20.900;2022-10-03T14:22:17;3.65;;;1.25;;
22284;SDS011;11311;52.192;20.900;2022-10-03T14:25:05;7.07;;;1.48;;
22284;SDS011;11311;52.192;20.900;2022-10-03T14:27:42;9.80;;;1.65;;
22284;SDS011;11311;52.192;20.900;2022-10-03T14:30:23;3.05;;;0.90;;
22284;SDS011;11311;52.192;20.900;2022-10-03T14:32:59;1.30;;;1.20;;
22284;SDS011;11311;52.192;20.900;2022-10-03T14:35:46;9.80;;;1.42;;
22284;SDS011;11311;52.192;20.900;2022-10-03T14:41:35;1.50;;;1.02;;
22284;SDS011;11311;52.192;20.900;2022-10-03T14:44:18;5.38;;;1.60;;
22284;SDS011;11311;52.192;20.900;2022-10-03T14:46:50;6.47;;;1.10;;
22284;SDS011;11311;52.192;20.900;2022-10-03T14:49:24;1.75;;;1.20;;
22284;SDS011;11311;52.192;20.900;2022-10-03T14:52:21;1.25;;;0.90;;
22284;SDS011;11311;52.192;20.900;2022-10-03T14:54:57;2.05;;;0.98;;
22284;SDS011;11311;52.192;20.900;2022-10-03T14:57:31;4.68;;;0.70;;
22284;SDS011;11311;52.192;20.900;2022-10-03T15:00:23;4.53;;;1.00;;
22284;SDS011;11311;52.192;20.900;2022-10-03T15:02:55;1.60;;;1.17;;
22284;SDS011;11311;52.192;20.900;2022-10-03T15:05:31;5.68;;;1.63;;
22284;SDS011;11311;52.192;20.900;2022-10-03T15:08:02;1.50;;;1.10;;
22284;SDS011;11311;52.192;20.900;2022-10-03T15:10:40;8.80;;;1.30;;
22284;SDS011;11311;52.192;20.900;2022-10-03T15:13:10;2.05;;;1.45;;
22284;SDS011;11311;52.192;20.900;2022-10-03T15:15:39;2.73;;;1.33;;
22284;SDS011;11311;52.192;20.900;2022-10-03T15:18:12;3.63;;;1.53;;
22284;SDS011;11311;52.192;20.900;2022-10-03T15:20:43;3.53;;;1.40;;
22284;SDS011;11311;52.192;20.900;2022-10-03T15:23:17;1.30;;;1.20;;
22284;SDS011;11311;52.192;20.900;2022-10-03T15:25:49;3.13;;;1.15;;
22284;SDS011;11311;52.192;20.900;2022-10-03T15:28:20;5.45;;;1.60;;
22284;SDS011;11311;52.192;20.900;2022-10-03T15:30:52;4.82;;;1.70;;
22284;SDS011;11311;52.192;20.900;2022-10-03T15:33:25;2.67;;;1.25;;
22284;SDS011;11311;52.192;20.900;2022-10-03T15:35:59;2.60;;;1.17;;
22284;SDS011;11311;52.192;20.900;2022-10-03T15:38:32;1.85;;;1.38;;
22284;SDS011;11311;52.192;20.900;2022-10-03T15:41:07;5.97;;;1.65;;
22284;SDS011;11311;52.192;20.900;2022-10-03T15:43:40;4.47;;;2.00;;
22284;SDS011;11311;52.192;20.900;2022-10-03T15:46:15;4.32;;;1.65;;
22284;SDS011;11311;52.192;20.900;2022-10-03T15:48:54;2.50;;;1.40;;
22284;SDS011;11311;52.192;20.900;2022-10-03T15:51:24;1.20;;;1.10;;
22284;SDS011;11311;52.192;20.900;2022-10-03T15:53:56;2.30;;;1.45;;
22284;SDS011;11311;52.192;20.900;2022-10-03T15:56:30;4.47;;;1.45;;
22284;SDS011;11311;52.192;20.900;2022-10-03T15:59:01;6.43;;;1.83;;
22284;SDS011;11311;52.192;20.900;2022-10-03T16:01:33;2.83;;;1.58;;
22284;SDS011;11311;52.192;20.900;2022-10-03T16:04:06;6.13;;;1.60;;
22284;SDS011;11311;52.192;20.900;2022-10-03T16:06:42;3.53;;;1.63;;
22284;SDS011;11311;52.192;20.900;2022-10-03T16:09:22;5.50;;;1.52;;
22284;SDS011;11311;52.192;20.900;2022-10-03T16:11:58;3.00;;;1.80;;
22284;SDS011;11311;52.192;20.900;2022-10-03T16:14:39;3.15;;;1.77;;
22284;SDS011;11311;52.192;20.900;2022-10-03T16:17:12;17.30;;;1.65;;
22284;SDS011;11311;52.192;20.900;2022-10-03T16:19:45;3.97;;;1.58;;
22284;SDS011;11311;52.192;20.900;2022-10-03T16:22:22;3.28;;;1.67;;
22284;SDS011;11311;52.192;20.900;2022-10-03T16:24:57;5.47;;;2.85;;
22284;SDS011;11311;52.192;20.900;2022-10-03T16:27:32;6.13;;;2.08;;
22284;SDS011;11311;52.192;20.900;2022-10-03T16:32:49;6.35;;;2.47;;
22284;SDS011;11311;52.192;20.900;2022-10-03T16:35:25;4.15;;;2.55;;
22284;SDS011;11311;52.192;20.900;2022-10-03T16:37:57;6.75;;;3.17;;
22284;SDS011;11311;52.192;20.900;2022-10-03T16:40:27;3.20;;;2.45;;
22284;SDS011;11311;52.192;20.900;2022-10-03T16:42:58;5.72;;;2.45;;
22284;SDS011;11311;52.192;20.900;2022-10-03T16:45:36;5.22;;;2.83;;
22284;SDS011;11311;52.192;20.900;2022-10-03T16:48:12;6.43;;;3.05;;
22284;SDS011;11311;52.192;20.900;2022-10-03T16:51:02;7.57;;;3.35;;
22284;SDS011;11311;52.192;20.900;2022-10-03T16:53:32;4.53;;;3.78;;
22284;SDS011;11311;52.192;20.900;2022-10-03T16:56:03;5.53;;;3.85;;
22284;SDS011;11311;52.192;20.900;2022-10-03T16:58:36;10.43;;;4.35;;
22284;SDS011;11311;52.192;20.900;2022-10-03T17:01:08;6.47;;;3.42;;
22284;SDS011;11311;52.192;20.900;2022-10-03T17:03:54;9.25;;;3.92;;
22284;SDS011;11311;52.192;20.900;2022-10-03T17:06:29;7.40;;;3.92;;
22284;SDS011;11311;52.192;20.900;2022-10-03T17:09:00;6.78;;;3.92;;
22284;SDS011;11311;52.192;20.900;2022-10-03T17:11:33;6.93;;;4.40;;
22284;SDS011;11311;52.192;20.900;2022-10-03T17:14:06;6.20;;;4.70;;
22284;SDS011;11311;52.192;20.900;2022-10-03T17:16:36;6.57;;;4.00;;
22284;SDS011;11311;52.192;20.900;2022-10-03T17:19:16;6.65;;;4.22;;
22284;SDS011;11311;52.192;20.900;2022-10-03T17:21:50;6.13;;;3.83;;
22284;SDS011;11311;52.192;20.900;2022-10-03T17:24:23;7.35;;;4.60;;
22284;SDS011;11311;52.192;20.900;2022-10-03T17:26:58;8.45;;;4.47;;
22284;SDS011;11311;52.192;20.900;2022-10-03T17:29:35;5.40;;;4.25;;
22284;SDS011;11311;52.192;20.900;2022-10-03T17:32:10;6.38;;;4.00;;
22284;SDS011;11311;52.192;20.900;2022-10-03T17:34:42;7.90;;;3.72;;
22284;SDS011;11311;52.192;20.900;2022-10-03T17:37:17;7.15;;;3.95;;
22284;SDS011;11311;52.192;20.900;2022-10-03T17:39:54;8.95;;;3.28;;
22284;SDS011;11311;52.192;20.900;2022-10-03T17:42:29;9.02;;;4.47;;
22284;SDS011;11311;52.192;20.900;2022-10-03T17:45:08;7.03;;;3.67;;
22284;SDS011;11311;52.192;20.900;2022-10-03T17:47:42;4.80;;;3.35;;
22284;SDS011;11311;52.192;20.900;2022-10-03T17:50:18;6.45;;;3.30;;
22284;SDS011;11311;52.192;20.900;2022-10-03T17:52:50;5.90;;;3.95;;
22284;SDS011;11311;52.192;20.900;2022-10-03T17:55:22;10.32;;;4.43;;
22284;SDS011;11311;52.192;20.900;2022-10-03T17:57:53;9.13;;;4.25;;
22284;SDS011;11311;52.192;20.900;2022-10-03T18:02:56;6.88;;;3.60;;
22284;SDS011;11311;52.192;20.900;2022-10-03T18:05:28;6.70;;;3.17;;
22284;SDS011;11311;52.192;20.900;2022-10-03T18:08:00;5.35;;;2.95;;
22284;SDS011;11311;52.192;20.900;2022-10-03T18:10:33;6.57;;;3.45;;
22284;SDS011;11311;52.192;20.900;2022-10-03T18:13:06;5.25;;;3.28;;
22284;SDS011;11311;52.192;20.900;2022-10-03T18:18:52;10.07;;;3.58;;
22284;SDS011;11311;52.192;20.900;2022-10-03T18:21:42;8.35;;;3.70;;
22284;SDS011;11311;52.192;20.900;2022-10-03T18:24:23;3.85;;;3.45;;
22284;SDS011;11311;52.192;20.900;2022-10-03T18:27:06;4.90;;;3.50;;
22284;SDS011;11311;52.192;20.900;2022-10-03T18:29:41;5.22;;;3.90;;
22284;SDS011;11311;52.192;20.900;2022-10-03T18:32:18;6.65;;;3.65;;
22284;SDS011;11311;52.192;20.900;2022-10-03T18:34:50;6.78;;;3.90;;
22284;SDS011;11311;52.192;20.900;2022-10-03T18:40:18;5.22;;;3.72;;
22284;SDS011;11311;52.192;20.900;2022-10-03T18:42:48;7.20;;;3.03;;
22284;SDS011;11311;52.192;20.900;2022-10-03T18:45:18;6.57;;;3.90;;
22284;SDS011;11311;52.192;20.900;2022-10-03T18:47:51;9.10;;;4.20;;
22284;SDS011;11311;52.192;20.900;2022-10-03T18:50:23;5.97;;;3.97;;
22284;SDS011;11311;52.192;20.900;2022-10-03T18:52:56;10.07;;;4.55;;
22284;SDS011;11311;52.192;20.900;2022-10-03T18:55:28;5.57;;;4.40;;
22284;SDS011;11311;52.192;20.900;2022-10-03T18:58:04;7.85;;;5.80;;
22284;SDS011;11311;52.192;20.900;2022-10-03T19:00:44;9.15;;;6.20;;
22284;SDS011;11311;52.192;20.900;2022-10-03T19:03:21;12.75;;;5.60;;
22284;SDS011;11311;52.192;20.900;2022-10-03T19:05:52;10.20;;;5.97;;